Sylvan, Washington
Current Conditions -  °F | °C
As of 9:53 AM on Thursday 23 Oct 2014 (Local Time) from KTIW Reporting Station
Light Rain Light Rain  
Wind Chill: 51°   Ceiling: 4200
Heat Index: 51°   Visibility: 10mi
Dew Point: 48°   Wind: 3mph
Humidity: 89%   Direction: 250°WSW
Pressure: 29.79"   Gusts: NA
Location:  47.2495°N, 122.621°W
Report Text: KTIW 231653Z 25003KT 10SM -RA FEW012 BKN042 OVC050 11/09 A2979 RMK AO2 SLP087 P0002 T01060089
Loading
Personal Weather Stations






























Interactive Weather Map
Tropical Storm Tracking
New forecast layout! Learn more

10-Day Weather Forecast

Advertisements
Track Severe Weather on mobile